TimeEST,TemperatureF,Dew PointF,Humidity,Sea Level PressureIn,VisibilityMPH,Wind Direction,Wind SpeedMPH,Gust SpeedMPH,PrecipitationIn,Events,Conditions,WindDirDegrees,DateUTC
12:55 AM,41.0,25.2,53,29.90,10.0,WSW,11.5,20.7,N/A,,Overcast,240,2013-01-01 05:55:00
1:55 AM,40.5,26.1,57,29.91,10.0,WSW,10.4,-,N/A,,Partly Cloudy,250,2013-01-01 06:55:00
2:55 AM,40.8,26.8,57,29.92,10.0,WSW,10.4,-,N/A,,Mostly Cloudy,240,2013-01-01 07:55:00
3:55 AM,41.2,27.1,57,29.91,10.0,WSW,13.8,-,N/A,,Overcast,250,2013-01-01 08:55:00
4:55 AM,40.1,27.5,61,29.90,10.0,West,6.9,-,N/A,,Scattered Clouds,270,2013-01-01 09:55:00
5:55 AM,38.7,28.0,66,29.91,10.0,West,5.8,-,N/A,,Clear,270,2013-01-01 10:55:00
6:55 AM,37.6,28.0,68,29.92,10.0,West,4.6,-,N/A,,Clear,270,2013-01-01 11:55:00
7:55 AM,38.1,28.6,69,29.92,10.0,WSW,5.8,-,N/A,,Scattered Clouds,250,2013-01-01 12:55:00
8:55 AM,39.4,28.6,65,29.93,10.0,West,9.2,-,N/A,,Overcast,260,2013-01-01 13:55:00
9:55 AM,40.1,28.4,63,29.94,10.0,West,8.1,-,N/A,,Overcast,260,2013-01-01 14:55:00
10:55 AM,40.3,27.7,61,29.93,10.0,West,9.2,-,N/A,,Overcast,260,2013-01-01 15:55:00
11:55 AM,40.8,27.9,60,29.90,10.0,West,9.2,21.9,N/A,,Mostly Cloudy,270,2013-01-01 16:55:00
12:55 PM,40.5,27.1,59,29.88,10.0,West,11.5,-,N/A,,Overcast,260,2013-01-01 17:55:00
1:55 PM,40.1,27.1,60,29.85,10.0,West,11.5,-,N/A,,Scattered Clouds,270,2013-01-01 18:55:00
2:55 PM,39.9,26.8,59,29.86,10.0,West,12.7,-,N/A,,Partly Cloudy,280,2013-01-01 19:55:00
3:55 PM,39.2,26.6,61,29.89,10.0,West,9.2,-,N/A,,Partly Cloudy,280,2013-01-01 20:55:00
4:55 PM,38.5,26.6,62,29.90,10.0,WNW,9.2,-,N/A,,Partly Cloudy,290,2013-01-01 21:55:00
5:55 PM,37.2,27.0,66,29.92,10.0,NW,9.2,-,N/A,,Overcast,310,2013-01-01 22:55:00
6:55 PM,36.9,24.8,62,29.94,10.0,WNW,10.4,-,N/A,,Overcast,300,2013-01-01 23:55:00
7:55 PM,34.5,22.5,61,29.97,10.0,NW,9.2,-,N/A,,Clear,320,2013-01-02 00:55:00
8:55 PM,31.8,21.0,64,29.97,10.0,NNW,9.2,-,N/A,,Clear,330,2013-01-02 01:55:00
9:55 PM,31.1,18.7,60,29.97,10.0,NNW,9.2,-,N/A,,Clear,330,2013-01-02 02:55:00
10:55 PM,30.9,15.6,53,30.00,10.0,NW,10.4,-,N/A,,Clear,320,2013-01-02 03:55:00
11:55 PM,29.8,16.3,57,30.01,10.0,NNW,10.4,-,N/A,,Clear,340,2013-01-02 04:55:00